createdAt,value
2023-03-28T00:00:58.612Z,96469.31
2023-03-28T00:03:25.395Z,96478.81
2023-03-28T00:05:51.914Z,96479.38
2023-03-28T00:08:18.710Z,96473.81
2023-03-28T00:10:45.420Z,96475.25
2023-03-28T00:13:12.634Z,96476.69
2023-03-28T00:15:39.701Z,96481.72
2023-03-28T00:18:06.397Z,96485.81
2023-03-28T00:20:37.481Z,96478.41
2023-03-28T00:23:04.419Z,96473.75
2023-03-28T00:25:35.369Z,96462.69
2023-03-28T00:28:02.799Z,96471.31
2023-03-28T00:30:29.455Z,96471.16
2023-03-28T00:32:56.087Z,96465.97
2023-03-28T00:35:22.811Z,96463.38
2023-03-28T00:37:49.297Z,96462.16
2023-03-28T00:40:15.842Z,96466.19
2023-03-28T00:42:43.268Z,96464.38
2023-03-28T00:45:11.440Z,96457.47
2023-03-28T00:47:46.013Z,96447.22
2023-03-28T00:50:20.012Z,96449.75
2023-03-28T00:52:55.938Z,96451.59
2023-03-28T00:55:30.334Z,96449.28
2023-03-28T00:57:58.218Z,96447.19
2023-03-28T01:00:25.481Z,96442.94
2023-03-28T01:02:56.457Z,96442.31
2023-03-28T01:05:27.504Z,96440.78
2023-03-28T01:08:02.000Z,96446.84
2023-03-28T01:10:32.117Z,96434.84
2023-03-28T01:13:00.512Z,96432.69
2023-03-28T01:15:27.029Z,96429.91
2023-03-28T01:17:54.149Z,96429.78
2023-03-28T01:20:41.825Z,96431.31
2023-03-28T01:23:20.168Z,96424.22
2023-03-28T01:26:11.282Z,96411.50
2023-03-28T01:28:40.595Z,96417.63
2023-03-28T01:31:16.421Z,96415.06
2023-03-28T01:34:10.108Z,96404.91
2023-03-28T01:37:35.632Z,96415.03
2023-03-28T01:40:13.964Z,96406.63
2023-03-28T01:42:53.047Z,96395.94
2023-03-28T01:45:28.399Z,96399.69
2023-03-28T01:48:19.893Z,96402.50
2023-03-28T01:51:23.446Z,96396.16
2023-03-28T01:54:02.328Z,96398.69
2023-03-28T01:56:47.113Z,96390.81
2023-03-28T01:59:22.866Z,96399.06
2023-03-28T02:02:01.781Z,96386.25
2023-03-28T02:04:33.594Z,96383.41
2023-03-28T02:07:01.598Z,96380.22
2023-03-28T02:09:31.988Z,96377.50
2023-03-28T02:12:08.287Z,96373.22
2023-03-28T02:14:40.633Z,96364.34
2023-03-28T02:17:13.327Z,96361.53
2023-03-28T02:19:42.097Z,96360.41
2023-03-28T02:22:31.512Z,96358.03
2023-03-28T02:24:58.391Z,96358.59
2023-03-28T02:27:26.976Z,96347.41
2023-03-28T02:29:54.263Z,96352.28
2023-03-28T02:32:22.075Z,96345.09
2023-03-28T02:34:53.195Z,96343.84
2023-03-28T02:37:50.682Z,96338.00
2023-03-28T02:40:22.799Z,96338.53
2023-03-28T02:43:14.600Z,96335.94
2023-03-28T02:46:02.653Z,96330.13
2023-03-28T02:49:07.994Z,96328.59
2023-03-28T02:51:41.073Z,96318.56
2023-03-28T02:54:25.302Z,96317.78
2023-03-28T02:57:06.494Z,96315.75
2023-03-28T02:59:41.798Z,96311.59
2023-03-28T03:02:08.859Z,96317.94
2023-03-28T03:04:35.428Z,96315.75
2023-03-28T03:07:02.094Z,96307.19
2023-03-28T03:09:28.605Z,96302.28
2023-03-28T03:11:55.156Z,96305.84
2023-03-28T03:14:21.628Z,96303.25
2023-03-28T03:16:48.103Z,96303.75
2023-03-28T03:19:14.592Z,96310.88
2023-03-28T03:21:41.052Z,96312.44
2023-03-28T03:24:07.885Z,96303.16
2023-03-28T03:26:34.358Z,96307.22
2023-03-28T03:29:00.907Z,96303.81
2023-03-28T03:31:27.543Z,96311.63
2023-03-28T03:33:54.088Z,96306.41
2023-03-28T03:36:20.537Z,96300.25
2023-03-28T03:38:47.046Z,96300.25
2023-03-28T03:41:13.563Z,96303.56
2023-03-28T03:43:40.090Z,96302.25
2023-03-28T03:46:06.923Z,96299.50
2023-03-28T03:48:33.472Z,96308.53
2023-03-28T03:50:59.991Z,96306.91
2023-03-28T03:53:26.481Z,96317.53
2023-03-28T03:55:52.998Z,96308.31
2023-03-28T03:58:20.365Z,96314.22
2023-03-28T04:00:47.374Z,96304.53
2023-03-28T04:03:24.709Z,96309.72
2023-03-28T04:05:52.468Z,96302.53
2023-03-28T04:08:18.942Z,96309.56
2023-03-28T04:10:47.247Z,96318.63
2023-03-28T04:13:13.939Z,96312.25
2023-03-28T04:15:40.459Z,96318.50
2023-03-28T04:18:09.476Z,96322.03
2023-03-28T04:20:36.487Z,96321.16
2023-03-28T04:23:03.292Z,96323.78
2023-03-28T04:25:29.742Z,96318.75
2023-03-28T04:27:57.378Z,96324.13
2023-03-28T04:30:23.859Z,96323.19
2023-03-28T04:32:50.395Z,96322.50
2023-03-28T04:35:16.973Z,96321.03
2023-03-28T04:37:43.528Z,96329.84
2023-03-28T04:40:10.218Z,96336.88
2023-03-28T04:42:38.707Z,96332.03
2023-03-28T04:45:06.680Z,96327.63
2023-03-28T04:47:33.201Z,96334.16
2023-03-28T04:49:59.687Z,96327.53
2023-03-28T04:52:26.559Z,96329.91
2023-03-28T04:54:53.016Z,96337.84
2023-03-28T04:57:19.539Z,96336.50
2023-03-28T04:59:46.046Z,96340.78
2023-03-28T05:02:12.563Z,96343.06
2023-03-28T05:04:39.093Z,96348.72
2023-03-28T05:07:05.588Z,96351.81
2023-03-28T05:09:32.056Z,96341.75
2023-03-28T05:11:58.563Z,96348.41
2023-03-28T05:14:25.213Z,96349.97
2023-03-28T05:16:51.929Z,96346.25
2023-03-28T05:19:18.703Z,96346.25
2023-03-28T05:21:45.354Z,96351.69
2023-03-28T05:24:12.991Z,96350.78
2023-03-28T05:26:39.480Z,96345.78
2023-03-28T05:29:06.002Z,96354.91
2023-03-28T05:31:32.568Z,96356.28
2023-03-28T05:33:59.129Z,96354.41
2023-03-28T05:36:25.589Z,96355.63
2023-03-28T05:38:52.143Z,96360.94
2023-03-28T05:41:18.807Z,96360.22
2023-03-28T05:43:45.316Z,96362.84
2023-03-28T05:46:14.952Z,96362.63
2023-03-28T05:48:41.439Z,96356.59
2023-03-28T05:51:07.947Z,96365.72
2023-03-28T05:53:34.447Z,96360.88
2023-03-28T05:56:00.912Z,96365.75
2023-03-28T05:58:27.425Z,96370.72
2023-03-28T06:00:55.079Z,96370.38
2023-03-28T06:03:21.698Z,96376.19
2023-03-28T06:05:48.248Z,96381.66
2023-03-28T06:08:14.792Z,96386.19
2023-03-28T06:10:41.266Z,96390.91
2023-03-28T06:13:07.768Z,96389.00
2023-03-28T06:15:34.246Z,96377.75
2023-03-28T06:18:00.936Z,96373.22
2023-03-28T06:20:27.593Z,96379.03
2023-03-28T06:22:54.145Z,96384.97
2023-03-28T06:25:20.666Z,96388.06
2023-03-28T06:27:47.179Z,96388.06
2023-03-28T06:30:14.167Z,96389.22
2023-03-28T06:32:40.716Z,96391.25
2023-03-28T06:35:07.856Z,96388.75
2023-03-28T06:37:34.399Z,96395.38
2023-03-28T06:40:00.883Z,96396.09
2023-03-28T06:42:27.398Z,96394.81
2023-03-28T06:44:53.932Z,96399.66
2023-03-28T06:47:20.408Z,96396.81
2023-03-28T06:49:46.907Z,96396.13
2023-03-28T06:52:13.434Z,96393.50
2023-03-28T06:54:39.958Z,96400.53
2023-03-28T06:57:06.518Z,96392.75
2023-03-28T06:59:33.048Z,96392.03
2023-03-28T07:01:59.576Z,96390.09
2023-03-28T07:04:26.073Z,96382.94
2023-03-28T07:06:52.735Z,96380.09
2023-03-28T07:09:19.266Z,96386.44
2023-03-28T07:11:45.785Z,96388.53
2023-03-28T07:14:12.315Z,96384.56
2023-03-28T07:16:38.851Z,96397.28
2023-03-28T07:19:05.446Z,96393.13
2023-03-28T07:21:32.067Z,96398.53
2023-03-28T07:23:58.647Z,96401.00
2023-03-28T07:26:25.264Z,96403.34
2023-03-28T07:28:54.348Z,96407.06
2023-03-28T07:31:20.907Z,96409.19
2023-03-28T07:33:47.526Z,96418.41
2023-03-28T07:36:17.621Z,96408.81
2023-03-28T07:38:45.428Z,96408.03
2023-03-28T07:41:13.817Z,96410.00
2023-03-28T07:43:40.666Z,96421.94
2023-03-28T07:46:10.041Z,96416.16
2023-03-28T07:48:37.876Z,96416.53
2023-03-28T07:51:05.182Z,96415.56
2023-03-28T07:53:32.504Z,96422.03
2023-03-28T07:55:59.697Z,96423.38
2023-03-28T07:58:26.456Z,96427.19
2023-03-28T08:00:53.277Z,96434.78
2023-03-28T08:03:19.831Z,96423.72
2023-03-28T08:05:46.743Z,96430.25
2023-03-28T08:08:13.409Z,96430.69
2023-03-28T08:10:39.893Z,96432.94
2023-03-28T08:13:06.469Z,96429.22
2023-03-28T08:15:33.034Z,96430.97
2023-03-28T08:18:02.527Z,96427.06
2023-03-28T08:20:29.174Z,96435.22
2023-03-28T08:22:55.649Z,96432.16
2023-03-28T08:25:22.278Z,96441.16
2023-03-28T08:27:48.784Z,96444.94
2023-03-28T08:30:15.309Z,96447.47
2023-03-28T08:32:41.842Z,96453.31
2023-03-28T08:35:08.820Z,96449.25
2023-03-28T08:37:35.943Z,96445.44
2023-03-28T08:40:02.460Z,96451.09
2023-03-28T08:42:38.304Z,96454.72
2023-03-28T08:45:12.797Z,96456.75
2023-03-28T08:48:05.202Z,96456.19
2023-03-28T08:50:36.145Z,96456.91
2023-03-28T08:53:04.733Z,96451.34
2023-03-28T08:55:40.209Z,96450.94
2023-03-28T08:58:18.866Z,96450.25
2023-03-28T09:00:45.633Z,96453.63
2023-03-28T09:03:15.783Z,96449.72
2023-03-28T09:05:42.405Z,96447.53
2023-03-28T09:08:45.933Z,96452.72
2023-03-28T09:11:15.323Z,96447.50
2023-03-28T09:13:50.877Z,96445.25
2023-03-28T09:16:55.269Z,96448.28
2023-03-28T09:19:49.334Z,96437.75
2023-03-28T09:22:26.020Z,96450.19
2023-03-28T09:25:08.560Z,96441.31
2023-03-28T09:27:51.769Z,96439.59
2023-03-28T09:30:22.414Z,96437.28
2023-03-28T09:32:49.165Z,96438.06
2023-03-28T09:35:25.120Z,96447.72
2023-03-28T09:37:54.320Z,96446.63
2023-03-28T09:40:25.074Z,96448.22
2023-03-28T09:43:09.992Z,96445.59
2023-03-28T09:45:48.434Z,96451.13
2023-03-28T09:48:36.345Z,96441.25
2023-03-28T09:51:05.214Z,96434.69
2023-03-28T09:53:34.974Z,96427.75
2023-03-28T09:56:24.736Z,96425.28
2023-03-28T09:59:02.101Z,96422.34
2023-03-28T10:01:45.078Z,96428.84
2023-03-28T10:04:31.408Z,96432.81
2023-03-28T10:07:10.245Z,96433.59
2023-03-28T10:09:57.638Z,96428.34
2023-03-28T10:12:32.050Z,96435.00
2023-03-28T10:14:59.137Z,96428.94
2023-03-28T10:17:33.208Z,96437.53
2023-03-28T10:20:19.233Z,96430.34
2023-03-28T10:22:49.693Z,96436.94
2023-03-28T10:25:29.946Z,96428.88
2023-03-28T10:27:58.879Z,96429.66
2023-03-28T10:30:28.713Z,96429.13
2023-03-28T10:33:16.640Z,96440.81
2023-03-28T10:35:53.787Z,96442.16
2023-03-28T10:38:22.760Z,96447.78
2023-03-28T10:41:00.651Z,96453.06
2023-03-28T10:43:37.743Z,96451.81
2023-03-28T10:46:14.139Z,96454.53
2023-03-28T10:48:47.415Z,96449.44
2023-03-28T10:51:21.213Z,96462.09
2023-03-28T10:53:54.716Z,96459.28
2023-03-28T10:56:29.816Z,96448.19
2023-03-28T10:59:10.537Z,96443.44
2023-03-28T11:02:14.536Z,96435.84
2023-03-28T11:05:02.526Z,96440.19
2023-03-28T11:07:40.949Z,96445.50
2023-03-28T11:10:22.522Z,96457.38
2023-03-28T11:12:55.505Z,96453.19
2023-03-28T11:15:35.884Z,96449.84
2023-03-28T11:18:15.554Z,96446.34
2023-03-28T11:21:19.276Z,96445.81
2023-03-28T11:23:52.432Z,96440.63
2023-03-28T11:26:39.169Z,96435.13
2023-03-28T11:29:20.075Z,96439.47
2023-03-28T11:32:09.356Z,96438.88
2023-03-28T11:35:04.541Z,96439.72
2023-03-28T11:37:40.101Z,96431.97
2023-03-28T11:40:30.120Z,96435.00
2023-03-28T11:43:03.047Z,96418.78
2023-03-28T11:45:52.265Z,96413.78
2023-03-28T11:48:30.356Z,96398.25
2023-03-28T11:51:14.713Z,96401.16
2023-03-28T11:53:53.287Z,96397.69
2023-03-28T11:56:48.220Z,96395.97
2023-03-28T11:59:26.132Z,96408.97
2023-03-28T12:02:12.453Z,96396.22
2023-03-28T12:04:58.546Z,96390.56
2023-03-28T12:07:34.337Z,96381.25
2023-03-28T12:10:19.288Z,96381.41
2023-03-28T12:13:03.305Z,96370.19
2023-03-28T12:15:55.861Z,96378.41
2023-03-28T12:18:41.944Z,96378.59
2023-03-28T12:21:17.887Z,96373.38
2023-03-28T12:24:29.910Z,96368.84
2023-03-28T12:27:03.415Z,96369.34
2023-03-28T12:29:46.640Z,96370.72
2023-03-28T12:32:42.274Z,96359.63
2023-03-28T12:35:33.165Z,96351.09
2023-03-28T12:38:31.744Z,96354.03
2023-03-28T12:41:07.497Z,96354.41
2023-03-28T12:43:43.645Z,96357.47
2023-03-28T12:46:15.546Z,96352.50
2023-03-28T12:48:49.592Z,96352.69
2023-03-28T12:51:44.194Z,96344.78
2023-03-28T12:54:16.696Z,96343.00
2023-03-28T12:56:47.871Z,96330.56
2023-03-28T12:59:38.948Z,96319.28
2023-03-28T13:02:37.148Z,96308.47
2023-03-28T13:05:30.914Z,96308.19
2023-03-28T13:08:26.966Z,96315.81
2023-03-28T13:11:09.201Z,96308.44
2023-03-28T13:14:21.733Z,96308.63
2023-03-28T13:16:57.103Z,96314.59
2023-03-28T13:19:46.071Z,96305.00
2023-03-28T13:22:48.184Z,96306.34
2023-03-28T13:25:25.923Z,96303.72
2023-03-28T13:27:56.033Z,96302.72
2023-03-28T13:30:28.809Z,96296.41
2023-03-28T13:32:59.212Z,96286.59
2023-03-28T13:35:37.588Z,96287.34
2023-03-28T13:38:28.986Z,96293.03
2023-03-28T13:41:04.924Z,96278.25
2023-03-28T13:43:43.183Z,96277.63
2023-03-28T13:46:18.700Z,96277.47
2023-03-28T13:49:09.381Z,96275.97
2023-03-28T13:51:51.569Z,96284.13
2023-03-28T13:54:18.945Z,96283.31
2023-03-28T13:56:49.341Z,96282.41
2023-03-28T13:59:26.624Z,96277.72
2023-03-28T14:01:59.081Z,96284.06
2023-03-28T14:04:29.678Z,96276.19
2023-03-28T14:06:56.889Z,96275.88
2023-03-28T14:09:29.252Z,96266.31
2023-03-28T14:12:04.615Z,96264.50
2023-03-28T14:14:51.369Z,96257.75
2023-03-28T14:17:25.496Z,96260.50
2023-03-28T14:19:59.671Z,96263.06
2023-03-28T14:22:29.926Z,96261.66
2023-03-28T14:25:00.575Z,96251.78
2023-03-28T14:27:42.139Z,96254.72
2023-03-28T14:30:30.962Z,96255.53
2023-03-28T14:33:03.767Z,96242.19
2023-03-28T14:35:32.505Z,96229.88
2023-03-28T14:38:01.649Z,96232.25
2023-03-28T14:40:37.072Z,96232.00
2023-03-28T14:43:17.728Z,96232.47
2023-03-28T14:45:46.596Z,96230.66
2023-03-28T14:48:23.789Z,96235.41
2023-03-28T14:50:53.513Z,96236.66
2023-03-28T14:53:26.179Z,96240.16
2023-03-28T14:55:58.116Z,96238.00
2023-03-28T14:58:27.788Z,96242.75
2023-03-28T15:01:01.540Z,96241.56
2023-03-28T15:03:36.485Z,96227.75
2023-03-28T15:06:03.404Z,96229.44
2023-03-28T15:08:36.412Z,96231.84
2023-03-28T15:11:14.762Z,96233.66
2023-03-28T15:13:47.439Z,96240.25
2023-03-28T15:16:21.085Z,96240.00
2023-03-28T15:18:59.904Z,96237.97
2023-03-28T15:21:26.591Z,96241.59
2023-03-28T15:24:00.405Z,96245.16
2023-03-28T15:26:36.774Z,96239.34
2023-03-28T15:29:07.288Z,96247.59
2023-03-28T15:31:38.046Z,96242.94
2023-03-28T15:34:10.368Z,96242.09
2023-03-28T15:36:36.888Z,96238.09
2023-03-28T15:39:18.954Z,96234.34
2023-03-28T15:41:47.416Z,96237.16
2023-03-28T15:44:30.420Z,96230.50
2023-03-28T15:47:06.306Z,96230.44
2023-03-28T15:49:37.762Z,96234.53
2023-03-28T15:52:14.657Z,96233.25
2023-03-28T15:54:48.745Z,96225.84
2023-03-28T15:57:20.019Z,96215.31
2023-03-28T15:59:49.100Z,96214.06
2023-03-28T16:02:22.482Z,96217.34
2023-03-28T16:05:04.936Z,96213.00
2023-03-28T16:07:43.241Z,96203.06
2023-03-28T16:10:10.662Z,96203.84
2023-03-28T16:12:37.198Z,96198.25
2023-03-28T16:15:04.741Z,96197.56
2023-03-28T16:17:32.103Z,96203.47
2023-03-28T16:19:59.305Z,96199.91
2023-03-28T16:22:26.658Z,96188.06
2023-03-28T16:24:54.662Z,96181.03
2023-03-28T16:27:21.804Z,96185.19
2023-03-28T16:29:48.915Z,96183.13
2023-03-28T16:32:16.284Z,96191.50
2023-03-28T16:34:43.538Z,96190.59
2023-03-28T16:37:10.450Z,96190.28
2023-03-28T16:39:37.297Z,96191.69
2023-03-28T16:42:05.063Z,96188.78
2023-03-28T16:44:32.429Z,96192.50
2023-03-28T16:47:00.132Z,96182.97
2023-03-28T16:49:26.875Z,96171.47
2023-03-28T16:51:53.475Z,96172.50
2023-03-28T16:54:20.363Z,96177.28
2023-03-28T16:56:46.999Z,96177.50
2023-03-28T16:59:13.629Z,96170.94
2023-03-28T17:01:40.225Z,96166.44
2023-03-28T17:04:06.842Z,96167.69
2023-03-28T17:06:33.370Z,96159.84
2023-03-28T17:08:59.880Z,96155.16
2023-03-28T17:11:26.388Z,96157.44
2023-03-28T17:13:54.600Z,96147.59
2023-03-28T17:16:23.019Z,96156.88
2023-03-28T17:18:50.240Z,96159.84
2023-03-28T17:21:18.165Z,96157.66
2023-03-28T17:23:47.040Z,96160.69
2023-03-28T17:26:15.022Z,96171.69
2023-03-28T17:28:41.894Z,96170.91
2023-03-28T17:31:11.343Z,96165.31
2023-03-28T17:33:38.086Z,96157.13
2023-03-28T17:36:22.027Z,96168.72
2023-03-28T17:38:51.131Z,96167.38
2023-03-28T17:41:19.173Z,96164.09
2023-03-28T17:43:45.744Z,96170.34
2023-03-28T17:46:12.521Z,96162.94
2023-03-28T17:48:40.048Z,96164.59
2023-03-28T17:51:07.735Z,96172.34
2023-03-28T17:53:34.328Z,96167.72
2023-03-28T17:56:01.253Z,96168.06
2023-03-28T17:58:27.990Z,96168.69
2023-03-28T18:00:54.619Z,96163.75
2023-03-28T18:03:21.700Z,96170.00
2023-03-28T18:05:51.424Z,96166.69
2023-03-28T18:08:18.292Z,96167.72
2023-03-28T18:10:44.785Z,96161.44
2023-03-28T18:13:11.277Z,96161.13
2023-03-28T18:15:37.754Z,96148.91
2023-03-28T18:18:04.369Z,96143.59
2023-03-28T18:20:30.897Z,96140.31
2023-03-28T18:22:57.403Z,96135.00
2023-03-28T18:25:23.887Z,96129.72
2023-03-28T18:27:50.417Z,96126.09
2023-03-28T18:30:16.937Z,96126.59
2023-03-28T18:32:43.446Z,96114.06
2023-03-28T18:35:09.965Z,96097.44
2023-03-28T18:37:36.518Z,96103.69
2023-03-28T18:40:03.268Z,96115.41
2023-03-28T18:42:30.510Z,96115.22
2023-03-28T18:44:56.985Z,96115.91
2023-03-28T18:47:23.516Z,96119.00
2023-03-28T18:49:50.116Z,96121.81
2023-03-28T18:52:16.609Z,96125.13
2023-03-28T18:54:43.118Z,96120.44
2023-03-28T18:57:09.592Z,96129.59
2023-03-28T18:59:36.085Z,96122.31
2023-03-28T19:02:02.691Z,96118.09
2023-03-28T19:04:29.387Z,96117.47
2023-03-28T19:06:55.984Z,96115.91
2023-03-28T19:09:22.438Z,96116.38
2023-03-28T19:11:52.271Z,96111.63
2023-03-28T19:14:18.781Z,96127.50
2023-03-28T19:16:45.285Z,96109.53
2023-03-28T19:19:11.819Z,96103.81
2023-03-28T19:21:38.361Z,96109.56
2023-03-28T19:24:05.325Z,96118.50
2023-03-28T19:26:31.969Z,96119.00
2023-03-28T19:28:58.453Z,96122.44
2023-03-28T19:31:24.952Z,96130.38
2023-03-28T19:33:52.450Z,96130.84
2023-03-28T19:36:18.968Z,96127.22
2023-03-28T19:38:45.473Z,96131.06
2023-03-28T19:41:19.090Z,96124.78
2023-03-28T19:43:46.330Z,96118.22
2023-03-28T19:46:20.380Z,96117.56
2023-03-28T19:48:47.052Z,96119.56
2023-03-28T19:51:13.986Z,96112.31
2023-03-28T19:53:40.575Z,96105.72
2023-03-28T19:56:07.572Z,96105.38
2023-03-28T19:58:34.334Z,96106.72
2023-03-28T20:01:01.071Z,96110.00
2023-03-28T20:03:27.774Z,96116.94
2023-03-28T20:05:54.256Z,96120.22
2023-03-28T20:08:20.738Z,96119.25
2023-03-28T20:10:50.092Z,96128.84
2023-03-28T20:13:17.366Z,96133.09
2023-03-28T20:15:45.747Z,96130.78
2023-03-28T20:18:15.756Z,96125.66
2023-03-28T20:20:42.349Z,96128.13
2023-03-28T20:23:09.766Z,96144.63
2023-03-28T20:25:36.239Z,96154.84
2023-03-28T20:28:03.096Z,96152.56
2023-03-28T20:30:31.128Z,96161.94
2023-03-28T20:32:58.512Z,96170.72
2023-03-28T20:35:25.568Z,96169.94
2023-03-28T20:37:52.094Z,96197.78
2023-03-28T20:40:19.147Z,96195.38
2023-03-28T20:42:45.632Z,96204.50
2023-03-28T20:45:12.866Z,96198.19
2023-03-28T20:47:40.991Z,96212.31
2023-03-28T20:50:07.641Z,96223.66
2023-03-28T20:52:38.680Z,96203.31
2023-03-28T20:55:05.695Z,96175.34
2023-03-28T20:57:32.547Z,96172.34
2023-03-28T20:59:59.053Z,96169.84
2023-03-28T21:02:25.548Z,96168.69
2023-03-28T21:04:52.152Z,96149.72
2023-03-28T21:07:18.683Z,96140.19
2023-03-28T21:09:45.140Z,96139.25
2023-03-28T21:12:11.607Z,96159.66
2023-03-28T21:14:38.081Z,96162.34
2023-03-28T21:17:04.574Z,96139.94
2023-03-28T21:19:31.049Z,96135.84
2023-03-28T21:21:57.590Z,96120.50
2023-03-28T21:24:24.148Z,96143.22
2023-03-28T21:26:50.608Z,96137.91
2023-03-28T21:29:17.114Z,96134.91
2023-03-28T21:31:43.706Z,96140.53
2023-03-28T21:34:10.324Z,96115.59
2023-03-28T21:36:36.837Z,96124.28
2023-03-28T21:39:03.364Z,96129.34
2023-03-28T21:41:29.850Z,96124.72
2023-03-28T21:43:56.305Z,96130.16
2023-03-28T21:46:22.918Z,96115.69
2023-03-28T21:48:49.568Z,96131.00
2023-03-28T21:51:17.381Z,96129.50
2023-03-28T21:53:44.034Z,96126.56
2023-03-28T21:56:10.565Z,96131.19
2023-03-28T21:58:37.064Z,96131.47
2023-03-28T22:01:04.879Z,96119.38
2023-03-28T22:03:34.794Z,96127.91
2023-03-28T22:06:01.264Z,96129.38
2023-03-28T22:08:27.783Z,96127.88
2023-03-28T22:10:57.949Z,96143.53
2023-03-28T22:13:24.692Z,96165.38
2023-03-28T22:15:52.064Z,96163.94
2023-03-28T22:18:18.720Z,96143.03
2023-03-28T22:20:50.025Z,96133.84
2023-03-28T22:23:16.497Z,96137.84
2023-03-28T22:25:42.937Z,96129.78
2023-03-28T22:28:10.653Z,96132.84
2023-03-28T22:30:38.967Z,96128.66
2023-03-28T22:33:07.337Z,96123.91
2023-03-28T22:35:34.008Z,96120.81
2023-03-28T22:38:01.196Z,96113.25
2023-03-28T22:40:28.033Z,96121.19
2023-03-28T22:42:54.546Z,96125.16
2023-03-28T22:45:22.058Z,96122.53
2023-03-28T22:47:50.184Z,96119.88
2023-03-28T22:50:18.926Z,96120.72
2023-03-28T22:52:48.636Z,96116.41
2023-03-28T22:55:15.217Z,96115.09
2023-03-28T22:57:42.107Z,96103.72
2023-03-28T23:00:13.634Z,96102.72
2023-03-28T23:02:41.242Z,96106.69
2023-03-28T23:05:09.312Z,96106.34
2023-03-28T23:07:36.908Z,96107.66
2023-03-28T23:10:11.922Z,96091.47
2023-03-28T23:12:38.392Z,96082.91
2023-03-28T23:15:05.221Z,96086.34
2023-03-28T23:17:31.747Z,96080.28
2023-03-28T23:19:58.337Z,96084.22
2023-03-28T23:22:24.952Z,96091.81
2023-03-28T23:24:51.559Z,96091.16
2023-03-28T23:27:19.132Z,96085.19
2023-03-28T23:29:45.813Z,96083.88
2023-03-28T23:32:12.348Z,96090.47
2023-03-28T23:34:38.928Z,96088.47
2023-03-28T23:37:05.430Z,96088.66
2023-03-28T23:39:31.884Z,96075.63
2023-03-28T23:41:58.349Z,96080.25
2023-03-28T23:44:24.843Z,96093.78
2023-03-28T23:46:51.345Z,96095.13
2023-03-28T23:49:17.913Z,96091.47
2023-03-28T23:51:44.544Z,96086.84
2023-03-28T23:54:11.061Z,96088.84
2023-03-28T23:56:37.612Z,96102.03
2023-03-28T23:59:04.189Z,96099.56
